sensor_id;sensor_type;location;lat;lon;timestamp;P1;durP1;ratioP1;P2;durP2;ratioP2
48881;SDS011;57063;51.406;-2.402;2023-05-10T00:00:43;48.05;;;16.42;;
48881;SDS011;57063;51.406;-2.402;2023-05-10T00:03:08;50.13;;;16.95;;
48881;SDS011;57063;51.406;-2.402;2023-05-10T00:05:33;49.03;;;17.55;;
48881;SDS011;57063;51.406;-2.402;2023-05-10T00:07:59;55.67;;;20.67;;
48881;SDS011;57063;51.406;-2.402;2023-05-10T00:10:24;58.22;;;20.15;;
48881;SDS011;57063;51.406;-2.402;2023-05-10T00:12:49;52.35;;;18.85;;
48881;SDS011;57063;51.406;-2.402;2023-05-10T00:15:14;54.10;;;20.03;;
48881;SDS011;57063;51.406;-2.402;2023-05-10T00:17:40;54.88;;;20.50;;
48881;SDS011;57063;51.406;-2.402;2023-05-10T00:20:05;47.53;;;19.83;;
48881;SDS011;57063;51.406;-2.402;2023-05-10T00:22:31;53.65;;;22.70;;
48881;SDS011;57063;51.406;-2.402;2023-05-10T00:24:57;57.63;;;21.83;;
48881;SDS011;57063;51.406;-2.402;2023-05-10T00:27:22;58.28;;;23.08;;
48881;SDS011;57063;51.406;-2.402;2023-05-10T00:29:47;56.72;;;23.55;;
48881;SDS011;57063;51.406;-2.402;2023-05-10T00:32:12;64.57;;;24.70;;
48881;SDS011;57063;51.406;-2.402;2023-05-10T00:34:38;62.78;;;23.73;;
48881;SDS011;57063;51.406;-2.402;2023-05-10T00:37:04;65.90;;;25.20;;
48881;SDS011;57063;51.406;-2.402;2023-05-10T00:39:29;71.50;;;26.80;;
48881;SDS011;57063;51.406;-2.402;2023-05-10T00:41:54;47.07;;;23.70;;
48881;SDS011;57063;51.406;-2.402;2023-05-10T00:44:20;54.57;;;22.33;;
48881;SDS011;57063;51.406;-2.402;2023-05-10T00:46:45;55.35;;;23.30;;
48881;SDS011;57063;51.406;-2.402;2023-05-10T00:49:11;55.15;;;23.90;;
48881;SDS011;57063;51.406;-2.402;2023-05-10T00:51:36;55.03;;;23.38;;
48881;SDS011;57063;51.406;-2.402;2023-05-10T00:54:02;58.53;;;26.30;;
48881;SDS011;57063;51.406;-2.402;2023-05-10T00:56:27;60.60;;;23.92;;
48881;SDS011;57063;51.406;-2.402;2023-05-10T00:58:54;65.57;;;24.70;;
48881;SDS011;57063;51.406;-2.402;2023-05-10T01:01:19;51.65;;;24.00;;
48881;SDS011;57063;51.406;-2.402;2023-05-10T01:03:45;60.72;;;26.55;;
48881;SDS011;57063;51.406;-2.402;2023-05-10T01:06:11;50.22;;;23.63;;
48881;SDS011;57063;51.406;-2.402;2023-05-10T01:08:37;55.15;;;26.13;;
48881;SDS011;57063;51.406;-2.402;2023-05-10T01:11:02;51.72;;;24.73;;
48881;SDS011;57063;51.406;-2.402;2023-05-10T01:15:52;43.87;;;24.73;;
48881;SDS011;57063;51.406;-2.402;2023-05-10T01:18:18;58.78;;;26.80;;
48881;SDS011;57063;51.406;-2.402;2023-05-10T01:20:45;62.83;;;28.67;;
48881;SDS011;57063;51.406;-2.402;2023-05-10T01:23:28;54.45;;;27.27;;
48881;SDS011;57063;51.406;-2.402;2023-05-10T01:31:13;48.40;;;26.97;;
48881;SDS011;57063;51.406;-2.402;2023-05-10T01:33:49;74.25;;;30.60;;
48881;SDS011;57063;51.406;-2.402;2023-05-10T01:36:35;58.10;;;27.90;;
48881;SDS011;57063;51.406;-2.402;2023-05-10T01:39:07;64.95;;;28.73;;
48881;SDS011;57063;51.406;-2.402;2023-05-10T01:41:44;49.42;;;29.17;;
48881;SDS011;57063;51.406;-2.402;2023-05-10T01:46:44;58.75;;;28.38;;
48881;SDS011;57063;51.406;-2.402;2023-05-10T01:49:26;64.18;;;30.63;;
48881;SDS011;57063;51.406;-2.402;2023-05-10T01:51:53;63.90;;;28.95;;
48881;SDS011;57063;51.406;-2.402;2023-05-10T01:54:20;59.95;;;30.00;;
48881;SDS011;57063;51.406;-2.402;2023-05-10T01:56:47;68.40;;;29.30;;
48881;SDS011;57063;51.406;-2.402;2023-05-10T01:59:15;56.50;;;29.60;;
48881;SDS011;57063;51.406;-2.402;2023-05-10T02:01:41;58.33;;;30.58;;
48881;SDS011;57063;51.406;-2.402;2023-05-10T02:04:07;65.15;;;30.42;;
48881;SDS011;57063;51.406;-2.402;2023-05-10T02:06:34;61.72;;;28.90;;
48881;SDS011;57063;51.406;-2.402;2023-05-10T02:09:00;54.22;;;29.40;;
48881;SDS011;57063;51.406;-2.402;2023-05-10T02:11:26;62.90;;;29.38;;
48881;SDS011;57063;51.406;-2.402;2023-05-10T02:13:52;63.45;;;29.65;;
48881;SDS011;57063;51.406;-2.402;2023-05-10T02:16:18;63.63;;;28.63;;
48881;SDS011;57063;51.406;-2.402;2023-05-10T02:18:47;56.53;;;28.25;;
48881;SDS011;57063;51.406;-2.402;2023-05-10T02:21:13;60.60;;;26.13;;
48881;SDS011;57063;51.406;-2.402;2023-05-10T02:23:40;66.35;;;28.70;;
48881;SDS011;57063;51.406;-2.402;2023-05-10T02:26:05;50.30;;;25.65;;
48881;SDS011;57063;51.406;-2.402;2023-05-10T02:28:31;47.70;;;26.25;;
48881;SDS011;57063;51.406;-2.402;2023-05-10T02:30:57;47.60;;;24.45;;
48881;SDS011;57063;51.406;-2.402;2023-05-10T02:33:22;57.35;;;25.33;;
48881;SDS011;57063;51.406;-2.402;2023-05-10T02:35:48;52.80;;;23.77;;
48881;SDS011;57063;51.406;-2.402;2023-05-10T02:38:14;53.25;;;24.17;;
48881;SDS011;57063;51.406;-2.402;2023-05-10T02:40:40;54.35;;;23.63;;
48881;SDS011;57063;51.406;-2.402;2023-05-10T02:43:06;43.85;;;21.88;;
48881;SDS011;57063;51.406;-2.402;2023-05-10T02:45:34;46.92;;;22.00;;
48881;SDS011;57063;51.406;-2.402;2023-05-10T02:48:00;50.33;;;21.40;;
48881;SDS011;57063;51.406;-2.402;2023-05-10T02:50:27;44.42;;;20.00;;
48881;SDS011;57063;51.406;-2.402;2023-05-10T02:52:54;49.40;;;20.73;;
48881;SDS011;57063;51.406;-2.402;2023-05-10T02:55:21;40.05;;;19.33;;
48881;SDS011;57063;51.406;-2.402;2023-05-10T02:57:56;41.08;;;19.23;;
48881;SDS011;57063;51.406;-2.402;2023-05-10T03:00:23;42.25;;;17.20;;
48881;SDS011;57063;51.406;-2.402;2023-05-10T03:02:49;40.30;;;16.92;;
48881;SDS011;57063;51.406;-2.402;2023-05-10T03:05:14;34.70;;;16.87;;
48881;SDS011;57063;51.406;-2.402;2023-05-10T03:07:39;40.22;;;16.95;;
48881;SDS011;57063;51.406;-2.402;2023-05-10T03:10:04;43.63;;;17.20;;
48881;SDS011;57063;51.406;-2.402;2023-05-10T03:14:57;43.50;;;16.80;;
48881;SDS011;57063;51.406;-2.402;2023-05-10T03:17:29;43.60;;;17.17;;
48881;SDS011;57063;51.406;-2.402;2023-05-10T03:19:55;37.45;;;16.65;;
48881;SDS011;57063;51.406;-2.402;2023-05-10T03:22:24;59.92;;;19.05;;
48881;SDS011;57063;51.406;-2.402;2023-05-10T03:24:50;40.15;;;15.85;;
48881;SDS011;57063;51.406;-2.402;2023-05-10T03:27:16;51.47;;;17.48;;
48881;SDS011;57063;51.406;-2.402;2023-05-10T03:29:42;35.80;;;14.40;;
48881;SDS011;57063;51.406;-2.402;2023-05-10T03:32:08;47.50;;;17.20;;
48881;SDS011;57063;51.406;-2.402;2023-05-10T03:34:33;36.42;;;15.60;;
48881;SDS011;57063;51.406;-2.402;2023-05-10T03:36:58;42.13;;;14.82;;
48881;SDS011;57063;51.406;-2.402;2023-05-10T03:39:23;36.15;;;14.77;;
48881;SDS011;57063;51.406;-2.402;2023-05-10T03:41:49;35.25;;;13.32;;
48881;SDS011;57063;51.406;-2.402;2023-05-10T03:44:15;52.08;;;17.20;;
48881;SDS011;57063;51.406;-2.402;2023-05-10T03:46:40;35.83;;;15.03;;
48881;SDS011;57063;51.406;-2.402;2023-05-10T03:49:05;41.23;;;15.33;;
48881;SDS011;57063;51.406;-2.402;2023-05-10T03:51:30;38.80;;;15.00;;
48881;SDS011;57063;51.406;-2.402;2023-05-10T03:53:56;39.85;;;14.88;;
48881;SDS011;57063;51.406;-2.402;2023-05-10T03:56:21;33.80;;;13.20;;
48881;SDS011;57063;51.406;-2.402;2023-05-10T03:58:47;48.67;;;15.70;;
48881;SDS011;57063;51.406;-2.402;2023-05-10T04:01:12;36.08;;;14.55;;
48881;SDS011;57063;51.406;-2.402;2023-05-10T04:03:37;38.72;;;13.70;;
48881;SDS011;57063;51.406;-2.402;2023-05-10T04:06:03;44.83;;;15.38;;
48881;SDS011;57063;51.406;-2.402;2023-05-10T04:08:28;37.30;;;14.05;;
48881;SDS011;57063;51.406;-2.402;2023-05-10T04:10:54;41.08;;;13.70;;
48881;SDS011;57063;51.406;-2.402;2023-05-10T04:13:19;45.40;;;15.52;;
48881;SDS011;57063;51.406;-2.402;2023-05-10T04:15:44;47.75;;;14.02;;
48881;SDS011;57063;51.406;-2.402;2023-05-10T04:18:10;57.13;;;14.45;;
48881;SDS011;57063;51.406;-2.402;2023-05-10T04:20:35;47.67;;;14.63;;
48881;SDS011;57063;51.406;-2.402;2023-05-10T04:23:00;41.70;;;13.73;;
48881;SDS011;57063;51.406;-2.402;2023-05-10T04:25:26;46.05;;;13.77;;
48881;SDS011;57063;51.406;-2.402;2023-05-10T04:27:51;41.55;;;15.63;;
48881;SDS011;57063;51.406;-2.402;2023-05-10T04:30:16;44.63;;;15.32;;
48881;SDS011;57063;51.406;-2.402;2023-05-10T04:32:42;35.80;;;12.02;;
48881;SDS011;57063;51.406;-2.402;2023-05-10T04:35:07;50.43;;;13.93;;
48881;SDS011;57063;51.406;-2.402;2023-05-10T04:37:32;47.40;;;12.80;;
48881;SDS011;57063;51.406;-2.402;2023-05-10T04:39:57;37.00;;;12.33;;
48881;SDS011;57063;51.406;-2.402;2023-05-10T04:42:24;41.45;;;12.95;;
48881;SDS011;57063;51.406;-2.402;2023-05-10T04:44:50;52.33;;;14.52;;
48881;SDS011;57063;51.406;-2.402;2023-05-10T04:47:16;37.33;;;12.35;;
48881;SDS011;57063;51.406;-2.402;2023-05-10T04:49:42;44.30;;;13.23;;
48881;SDS011;57063;51.406;-2.402;2023-05-10T04:52:07;33.23;;;12.63;;
48881;SDS011;57063;51.406;-2.402;2023-05-10T04:54:32;45.67;;;14.90;;
48881;SDS011;57063;51.406;-2.402;2023-05-10T04:56:57;35.50;;;13.17;;
48881;SDS011;57063;51.406;-2.402;2023-05-10T04:59:22;50.35;;;14.18;;
48881;SDS011;57063;51.406;-2.402;2023-05-10T05:01:48;44.63;;;15.10;;
48881;SDS011;57063;51.406;-2.402;2023-05-10T05:04:13;44.37;;;15.53;;
48881;SDS011;57063;51.406;-2.402;2023-05-10T05:06:39;51.17;;;15.93;;
48881;SDS011;57063;51.406;-2.402;2023-05-10T05:09:04;50.90;;;17.30;;
48881;SDS011;57063;51.406;-2.402;2023-05-10T05:11:30;42.05;;;15.27;;
48881;SDS011;57063;51.406;-2.402;2023-05-10T05:13:55;45.53;;;15.43;;
48881;SDS011;57063;51.406;-2.402;2023-05-10T05:16:20;41.15;;;14.10;;
48881;SDS011;57063;51.406;-2.402;2023-05-10T05:18:46;42.20;;;15.38;;
48881;SDS011;57063;51.406;-2.402;2023-05-10T05:21:18;35.77;;;15.47;;
48881;SDS011;57063;51.406;-2.402;2023-05-10T05:23:43;41.05;;;16.20;;
48881;SDS011;57063;51.406;-2.402;2023-05-10T05:26:09;44.65;;;16.48;;
48881;SDS011;57063;51.406;-2.402;2023-05-10T05:28:34;48.92;;;17.40;;
48881;SDS011;57063;51.406;-2.402;2023-05-10T05:31:02;40.03;;;16.25;;
48881;SDS011;57063;51.406;-2.402;2023-05-10T05:33:27;35.75;;;16.13;;
48881;SDS011;57063;51.406;-2.402;2023-05-10T05:35:52;51.70;;;16.07;;
48881;SDS011;57063;51.406;-2.402;2023-05-10T05:38:18;47.22;;;15.55;;
48881;SDS011;57063;51.406;-2.402;2023-05-10T05:40:43;50.17;;;16.90;;
48881;SDS011;57063;51.406;-2.402;2023-05-10T05:43:08;41.53;;;15.45;;
48881;SDS011;57063;51.406;-2.402;2023-05-10T05:45:33;51.13;;;17.05;;
48881;SDS011;57063;51.406;-2.402;2023-05-10T05:47:58;50.50;;;18.10;;
48881;SDS011;57063;51.406;-2.402;2023-05-10T05:50:24;41.77;;;17.30;;
48881;SDS011;57063;51.406;-2.402;2023-05-10T05:52:49;46.30;;;17.00;;
48881;SDS011;57063;51.406;-2.402;2023-05-10T05:55:14;36.75;;;16.45;;
48881;SDS011;57063;51.406;-2.402;2023-05-10T05:57:39;43.97;;;18.23;;
48881;SDS011;57063;51.406;-2.402;2023-05-10T06:00:05;52.60;;;17.25;;
48881;SDS011;57063;51.406;-2.402;2023-05-10T06:02:30;42.67;;;16.85;;
48881;SDS011;57063;51.406;-2.402;2023-05-10T06:04:55;38.07;;;14.80;;
48881;SDS011;57063;51.406;-2.402;2023-05-10T06:07:21;36.63;;;16.23;;
48881;SDS011;57063;51.406;-2.402;2023-05-10T06:09:46;46.95;;;15.13;;
48881;SDS011;57063;51.406;-2.402;2023-05-10T06:12:11;37.05;;;14.13;;
48881;SDS011;57063;51.406;-2.402;2023-05-10T06:14:37;36.13;;;13.60;;
48881;SDS011;57063;51.406;-2.402;2023-05-10T06:17:02;36.43;;;11.13;;
48881;SDS011;57063;51.406;-2.402;2023-05-10T06:19:29;31.83;;;10.13;;
48881;SDS011;57063;51.406;-2.402;2023-05-10T06:21:55;33.33;;;9.43;;
48881;SDS011;57063;51.406;-2.402;2023-05-10T06:24:21;32.22;;;9.68;;
48881;SDS011;57063;51.406;-2.402;2023-05-10T06:26:46;32.67;;;8.45;;
48881;SDS011;57063;51.406;-2.402;2023-05-10T06:29:12;27.65;;;8.13;;
48881;SDS011;57063;51.406;-2.402;2023-05-10T06:31:37;30.73;;;8.88;;
48881;SDS011;57063;51.406;-2.402;2023-05-10T06:34:02;25.57;;;6.57;;
48881;SDS011;57063;51.406;-2.402;2023-05-10T06:36:27;33.33;;;8.30;;
48881;SDS011;57063;51.406;-2.402;2023-05-10T06:38:52;31.27;;;6.13;;
48881;SDS011;57063;51.406;-2.402;2023-05-10T06:41:18;35.50;;;6.45;;
48881;SDS011;57063;51.406;-2.402;2023-05-10T06:43:43;23.38;;;5.50;;
48881;SDS011;57063;51.406;-2.402;2023-05-10T06:46:08;22.58;;;4.72;;
48881;SDS011;57063;51.406;-2.402;2023-05-10T06:48:34;21.83;;;4.90;;
48881;SDS011;57063;51.406;-2.402;2023-05-10T06:50:59;22.35;;;4.75;;
48881;SDS011;57063;51.406;-2.402;2023-05-10T06:53:24;32.28;;;6.65;;
48881;SDS011;57063;51.406;-2.402;2023-05-10T06:55:50;31.60;;;5.47;;
48881;SDS011;57063;51.406;-2.402;2023-05-10T06:58:15;29.88;;;5.50;;
48881;SDS011;57063;51.406;-2.402;2023-05-10T07:00:41;29.25;;;6.80;;
48881;SDS011;57063;51.406;-2.402;2023-05-10T07:03:08;30.13;;;7.57;;
48881;SDS011;57063;51.406;-2.402;2023-05-10T07:05:33;28.73;;;5.20;;
48881;SDS011;57063;51.406;-2.402;2023-05-10T07:07:59;22.83;;;5.25;;
48881;SDS011;57063;51.406;-2.402;2023-05-10T07:10:24;28.52;;;5.43;;
48881;SDS011;57063;51.406;-2.402;2023-05-10T07:12:49;27.15;;;5.90;;
48881;SDS011;57063;51.406;-2.402;2023-05-10T07:15:15;25.90;;;4.68;;
48881;SDS011;57063;51.406;-2.402;2023-05-10T07:17:40;23.23;;;4.47;;
48881;SDS011;57063;51.406;-2.402;2023-05-10T07:20:06;22.55;;;4.15;;
48881;SDS011;57063;51.406;-2.402;2023-05-10T07:22:31;22.23;;;4.85;;
48881;SDS011;57063;51.406;-2.402;2023-05-10T07:24:57;21.63;;;4.40;;
48881;SDS011;57063;51.406;-2.402;2023-05-10T07:27:22;27.40;;;5.33;;
48881;SDS011;57063;51.406;-2.402;2023-05-10T07:29:47;27.15;;;6.05;;
48881;SDS011;57063;51.406;-2.402;2023-05-10T07:32:12;24.95;;;5.07;;
48881;SDS011;57063;51.406;-2.402;2023-05-10T07:34:38;20.30;;;4.40;;
48881;SDS011;57063;51.406;-2.402;2023-05-10T07:37:03;24.13;;;5.07;;
48881;SDS011;57063;51.406;-2.402;2023-05-10T07:39:28;12.85;;;3.25;;
48881;SDS011;57063;51.406;-2.402;2023-05-10T07:41:54;18.47;;;5.00;;
48881;SDS011;57063;51.406;-2.402;2023-05-10T07:44:19;21.33;;;4.93;;
48881;SDS011;57063;51.406;-2.402;2023-05-10T07:46:45;23.92;;;4.70;;
48881;SDS011;57063;51.406;-2.402;2023-05-10T07:49:10;17.10;;;4.28;;
48881;SDS011;57063;51.406;-2.402;2023-05-10T07:51:35;23.37;;;4.67;;
48881;SDS011;57063;51.406;-2.402;2023-05-10T07:54:01;18.38;;;4.90;;
48881;SDS011;57063;51.406;-2.402;2023-05-10T07:56:28;23.02;;;4.78;;
48881;SDS011;57063;51.406;-2.402;2023-05-10T07:58:57;21.45;;;3.67;;
48881;SDS011;57063;51.406;-2.402;2023-05-10T08:01:23;17.83;;;3.63;;
48881;SDS011;57063;51.406;-2.402;2023-05-10T08:03:48;23.27;;;4.05;;
48881;SDS011;57063;51.406;-2.402;2023-05-10T08:06:14;20.20;;;3.97;;
48881;SDS011;57063;51.406;-2.402;2023-05-10T08:08:40;20.58;;;4.35;;
48881;SDS011;57063;51.406;-2.402;2023-05-10T08:11:05;20.75;;;4.00;;
48881;SDS011;57063;51.406;-2.402;2023-05-10T08:13:31;19.00;;;3.93;;
48881;SDS011;57063;51.406;-2.402;2023-05-10T08:15:56;21.65;;;4.72;;
48881;SDS011;57063;51.406;-2.402;2023-05-10T08:18:21;18.23;;;4.00;;
48881;SDS011;57063;51.406;-2.402;2023-05-10T08:20:46;27.63;;;5.33;;
48881;SDS011;57063;51.406;-2.402;2023-05-10T08:23:12;23.50;;;4.70;;
48881;SDS011;57063;51.406;-2.402;2023-05-10T08:25:37;25.17;;;5.05;;
48881;SDS011;57063;51.406;-2.402;2023-05-10T08:28:03;20.27;;;5.57;;
48881;SDS011;57063;51.406;-2.402;2023-05-10T08:30:28;31.58;;;7.03;;
48881;SDS011;57063;51.406;-2.402;2023-05-10T08:32:53;25.40;;;6.38;;
48881;SDS011;57063;51.406;-2.402;2023-05-10T08:37:53;19.45;;;5.07;;
48881;SDS011;57063;51.406;-2.402;2023-05-10T08:40:19;17.58;;;4.68;;
48881;SDS011;57063;51.406;-2.402;2023-05-10T08:42:47;18.83;;;4.93;;
48881;SDS011;57063;51.406;-2.402;2023-05-10T08:45:16;15.33;;;3.80;;
48881;SDS011;57063;51.406;-2.402;2023-05-10T08:55:37;19.90;;;4.40;;
48881;SDS011;57063;51.406;-2.402;2023-05-10T08:58:07;18.58;;;4.82;;
48881;SDS011;57063;51.406;-2.402;2023-05-10T09:00:35;21.42;;;5.10;;
48881;SDS011;57063;51.406;-2.402;2023-05-10T09:03:02;22.92;;;6.53;;
48881;SDS011;57063;51.406;-2.402;2023-05-10T09:05:27;18.38;;;5.90;;
48881;SDS011;57063;51.406;-2.402;2023-05-10T09:07:53;27.80;;;6.68;;
48881;SDS011;57063;51.406;-2.402;2023-05-10T09:10:21;24.02;;;6.65;;
48881;SDS011;57063;51.406;-2.402;2023-05-10T09:12:51;31.73;;;6.13;;
48881;SDS011;57063;51.406;-2.402;2023-05-10T09:22:54;29.83;;;7.50;;
48881;SDS011;57063;51.406;-2.402;2023-05-10T09:25:19;21.17;;;5.53;;
48881;SDS011;57063;51.406;-2.402;2023-05-10T09:27:46;20.90;;;5.82;;
48881;SDS011;57063;51.406;-2.402;2023-05-10T09:30:15;15.98;;;4.18;;
48881;SDS011;57063;51.406;-2.402;2023-05-10T09:32:44;20.77;;;5.40;;
48881;SDS011;57063;51.406;-2.402;2023-05-10T09:35:11;23.88;;;5.78;;
48881;SDS011;57063;51.406;-2.402;2023-05-10T09:37:36;21.42;;;6.60;;
48881;SDS011;57063;51.406;-2.402;2023-05-10T09:40:07;25.63;;;6.22;;
48881;SDS011;57063;51.406;-2.402;2023-05-10T09:42:33;19.92;;;5.57;;
48881;SDS011;57063;51.406;-2.402;2023-05-10T09:45:03;14.63;;;4.63;;
48881;SDS011;57063;51.406;-2.402;2023-05-10T09:50:04;20.48;;;4.68;;
48881;SDS011;57063;51.406;-2.402;2023-05-10T09:52:30;14.88;;;3.80;;
48881;SDS011;57063;51.406;-2.402;2023-05-10T09:54:59;21.75;;;3.80;;
48881;SDS011;57063;51.406;-2.402;2023-05-10T09:57:24;18.25;;;5.10;;
48881;SDS011;57063;51.406;-2.402;2023-05-10T09:59:50;27.13;;;4.78;;
48881;SDS011;57063;51.406;-2.402;2023-05-10T10:02:19;21.02;;;4.40;;
48881;SDS011;57063;51.406;-2.402;2023-05-10T10:04:45;16.42;;;3.42;;
48881;SDS011;57063;51.406;-2.402;2023-05-10T10:07:13;21.25;;;3.97;;
48881;SDS011;57063;51.406;-2.402;2023-05-10T10:09:39;20.73;;;3.60;;
48881;SDS011;57063;51.406;-2.402;2023-05-10T10:12:05;23.35;;;4.38;;
48881;SDS011;57063;51.406;-2.402;2023-05-10T10:14:30;19.20;;;4.32;;
48881;SDS011;57063;51.406;-2.402;2023-05-10T10:16:55;20.58;;;4.45;;
48881;SDS011;57063;51.406;-2.402;2023-05-10T10:19:21;30.75;;;3.88;;
48881;SDS011;57063;51.406;-2.402;2023-05-10T10:21:50;20.02;;;5.05;;
48881;SDS011;57063;51.406;-2.402;2023-05-10T10:24:15;17.98;;;4.00;;
48881;SDS011;57063;51.406;-2.402;2023-05-10T10:26:42;19.08;;;2.47;;
48881;SDS011;57063;51.406;-2.402;2023-05-10T10:34:40;16.25;;;2.88;;
48881;SDS011;57063;51.406;-2.402;2023-05-10T10:37:05;11.52;;;2.50;;
48881;SDS011;57063;51.406;-2.402;2023-05-10T10:39:31;15.30;;;2.72;;
48881;SDS011;57063;51.406;-2.402;2023-05-10T10:41:57;16.15;;;3.28;;
48881;SDS011;57063;51.406;-2.402;2023-05-10T10:44:23;12.60;;;2.38;;
48881;SDS011;57063;51.406;-2.402;2023-05-10T10:52:24;14.50;;;2.47;;
48881;SDS011;57063;51.406;-2.402;2023-05-10T10:54:57;12.20;;;2.58;;
48881;SDS011;57063;51.406;-2.402;2023-05-10T10:57:24;13.85;;;2.38;;
48881;SDS011;57063;51.406;-2.402;2023-05-10T10:59:51;13.88;;;2.67;;
48881;SDS011;57063;51.406;-2.402;2023-05-10T11:05:22;10.50;;;2.30;;
48881;SDS011;57063;51.406;-2.402;2023-05-10T11:07:53;13.95;;;2.72;;
48881;SDS011;57063;51.406;-2.402;2023-05-10T11:10:20;11.90;;;2.22;;
48881;SDS011;57063;51.406;-2.402;2023-05-10T11:15:17;17.40;;;3.20;;
48881;SDS011;57063;51.406;-2.402;2023-05-10T11:17:43;21.00;;;3.22;;
48881;SDS011;57063;51.406;-2.402;2023-05-10T11:20:09;12.52;;;2.55;;
48881;SDS011;57063;51.406;-2.402;2023-05-10T11:22:53;20.50;;;3.42;;
48881;SDS011;57063;51.406;-2.402;2023-05-10T11:25:18;15.80;;;3.13;;
48881;SDS011;57063;51.406;-2.402;2023-05-10T11:27:44;23.13;;;4.07;;
48881;SDS011;57063;51.406;-2.402;2023-05-10T11:30:10;14.88;;;2.80;;
48881;SDS011;57063;51.406;-2.402;2023-05-10T11:32:37;17.27;;;3.10;;
48881;SDS011;57063;51.406;-2.402;2023-05-10T11:35:09;17.77;;;2.97;;
48881;SDS011;57063;51.406;-2.402;2023-05-10T11:37:35;13.77;;;2.67;;
48881;SDS011;57063;51.406;-2.402;2023-05-10T11:40:01;14.70;;;3.30;;
48881;SDS011;57063;51.406;-2.402;2023-05-10T11:42:27;15.57;;;3.95;;
48881;SDS011;57063;51.406;-2.402;2023-05-10T11:44:53;17.73;;;2.35;;
48881;SDS011;57063;51.406;-2.402;2023-05-10T11:47:38;20.15;;;2.78;;
48881;SDS011;57063;51.406;-2.402;2023-05-10T11:50:04;12.23;;;2.50;;
48881;SDS011;57063;51.406;-2.402;2023-05-10T11:52:34;12.35;;;2.45;;
48881;SDS011;57063;51.406;-2.402;2023-05-10T11:55:00;16.65;;;2.83;;
48881;SDS011;57063;51.406;-2.402;2023-05-10T11:57:26;13.88;;;2.28;;
48881;SDS011;57063;51.406;-2.402;2023-05-10T11:59:56;11.15;;;1.98;;
48881;SDS011;57063;51.406;-2.402;2023-05-10T12:02:21;9.00;;;1.90;;
48881;SDS011;57063;51.406;-2.402;2023-05-10T12:04:47;17.50;;;2.47;;
48881;SDS011;57063;51.406;-2.402;2023-05-10T12:07:12;9.38;;;1.80;;
48881;SDS011;57063;51.406;-2.402;2023-05-10T12:09:42;12.35;;;2.20;;
48881;SDS011;57063;51.406;-2.402;2023-05-10T12:12:07;10.70;;;2.05;;
48881;SDS011;57063;51.406;-2.402;2023-05-10T12:14:36;17.08;;;3.28;;
48881;SDS011;57063;51.406;-2.402;2023-05-10T12:17:01;11.50;;;2.00;;
48881;SDS011;57063;51.406;-2.402;2023-05-10T12:19:26;8.20;;;2.17;;
48881;SDS011;57063;51.406;-2.402;2023-05-10T12:21:52;7.80;;;1.67;;
48881;SDS011;57063;51.406;-2.402;2023-05-10T12:24:17;7.82;;;2.08;;
48881;SDS011;57063;51.406;-2.402;2023-05-10T12:29:19;10.15;;;2.10;;
48881;SDS011;57063;51.406;-2.402;2023-05-10T12:32:00;8.10;;;2.33;;
48881;SDS011;57063;51.406;-2.402;2023-05-10T12:34:26;13.93;;;1.55;;
48881;SDS011;57063;51.406;-2.402;2023-05-10T12:47:29;8.57;;;1.70;;
48881;SDS011;57063;51.406;-2.402;2023-05-10T12:49:55;9.02;;;1.38;;
48881;SDS011;57063;51.406;-2.402;2023-05-10T12:57:32;10.80;;;1.92;;
48881;SDS011;57063;51.406;-2.402;2023-05-10T12:59:57;11.23;;;1.98;;
48881;SDS011;57063;51.406;-2.402;2023-05-10T13:02:22;6.75;;;2.38;;
48881;SDS011;57063;51.406;-2.402;2023-05-10T13:04:48;6.80;;;1.35;;
48881;SDS011;57063;51.406;-2.402;2023-05-10T13:07:13;4.28;;;0.65;;
48881;SDS011;57063;51.406;-2.402;2023-05-10T13:09:39;5.00;;;0.80;;
48881;SDS011;57063;51.406;-2.402;2023-05-10T13:12:05;5.50;;;1.10;;
48881;SDS011;57063;51.406;-2.402;2023-05-10T13:14:33;2.92;;;0.50;;
48881;SDS011;57063;51.406;-2.402;2023-05-10T13:16:58;3.78;;;0.73;;
48881;SDS011;57063;51.406;-2.402;2023-05-10T13:19:25;5.35;;;0.68;;
48881;SDS011;57063;51.406;-2.402;2023-05-10T13:21:51;2.08;;;0.40;;
48881;SDS011;57063;51.406;-2.402;2023-05-10T13:24:16;4.35;;;0.90;;
48881;SDS011;57063;51.406;-2.402;2023-05-10T13:26:42;3.50;;;0.73;;
48881;SDS011;57063;51.406;-2.402;2023-05-10T13:29:10;3.35;;;0.65;;
48881;SDS011;57063;51.406;-2.402;2023-05-10T13:31:35;9.38;;;1.75;;
48881;SDS011;57063;51.406;-2.402;2023-05-10T13:34:01;5.18;;;0.80;;
48881;SDS011;57063;51.406;-2.402;2023-05-10T13:36:26;6.18;;;0.82;;
48881;SDS011;57063;51.406;-2.402;2023-05-10T13:38:51;2.90;;;0.47;;
48881;SDS011;57063;51.406;-2.402;2023-05-10T13:41:17;8.00;;;1.02;;
48881;SDS011;57063;51.406;-2.402;2023-05-10T13:43:42;4.25;;;1.02;;
48881;SDS011;57063;51.406;-2.402;2023-05-10T13:46:07;4.85;;;1.08;;
48881;SDS011;57063;51.406;-2.402;2023-05-10T13:48:33;4.82;;;1.80;;
48881;SDS011;57063;51.406;-2.402;2023-05-10T13:50:58;9.23;;;2.90;;
48881;SDS011;57063;51.406;-2.402;2023-05-10T13:53:23;3.55;;;1.30;;
48881;SDS011;57063;51.406;-2.402;2023-05-10T13:55:49;2.38;;;1.17;;
48881;SDS011;57063;51.406;-2.402;2023-05-10T13:58:14;6.78;;;0.70;;
48881;SDS011;57063;51.406;-2.402;2023-05-10T14:00:39;2.97;;;0.87;;
48881;SDS011;57063;51.406;-2.402;2023-05-10T14:03:05;3.47;;;0.57;;
48881;SDS011;57063;51.406;-2.402;2023-05-10T14:05:31;9.07;;;0.80;;
48881;SDS011;57063;51.406;-2.402;2023-05-10T14:07:56;3.08;;;0.57;;
48881;SDS011;57063;51.406;-2.402;2023-05-10T14:10:22;1.73;;;0.30;;
48881;SDS011;57063;51.406;-2.402;2023-05-10T14:12:47;0.93;;;0.23;;
48881;SDS011;57063;51.406;-2.402;2023-05-10T14:15:12;1.38;;;0.32;;
48881;SDS011;57063;51.406;-2.402;2023-05-10T14:17:37;3.90;;;0.60;;
48881;SDS011;57063;51.406;-2.402;2023-05-10T14:20:03;3.53;;;0.40;;
48881;SDS011;57063;51.406;-2.402;2023-05-10T14:22:28;2.42;;;0.40;;
48881;SDS011;57063;51.406;-2.402;2023-05-10T14:24:54;6.30;;;0.80;;
48881;SDS011;57063;51.406;-2.402;2023-05-10T14:27:19;4.90;;;1.05;;
48881;SDS011;57063;51.406;-2.402;2023-05-10T14:29:44;4.77;;;0.67;;
48881;SDS011;57063;51.406;-2.402;2023-05-10T14:32:09;2.60;;;0.70;;
48881;SDS011;57063;51.406;-2.402;2023-05-10T14:34:35;3.10;;;0.98;;
48881;SDS011;57063;51.406;-2.402;2023-05-10T14:37:00;2.95;;;0.40;;
48881;SDS011;57063;51.406;-2.402;2023-05-10T14:39:26;1.42;;;0.30;;
48881;SDS011;57063;51.406;-2.402;2023-05-10T14:41:54;0.93;;;0.22;;
48881;SDS011;57063;51.406;-2.402;2023-05-10T14:44:19;1.40;;;0.20;;
48881;SDS011;57063;51.406;-2.402;2023-05-10T14:46:45;1.35;;;0.40;;
48881;SDS011;57063;51.406;-2.402;2023-05-10T14:49:10;3.63;;;0.65;;
48881;SDS011;57063;51.406;-2.402;2023-05-10T14:51:35;4.03;;;0.40;;
48881;SDS011;57063;51.406;-2.402;2023-05-10T14:54:01;3.45;;;0.60;;
48881;SDS011;57063;51.406;-2.402;2023-05-10T14:56:27;4.60;;;1.00;;
48881;SDS011;57063;51.406;-2.402;2023-05-10T14:58:52;2.92;;;0.40;;
48881;SDS011;57063;51.406;-2.402;2023-05-10T15:01:18;3.10;;;0.40;;
48881;SDS011;57063;51.406;-2.402;2023-05-10T15:03:51;3.70;;;0.52;;
48881;SDS011;57063;51.406;-2.402;2023-05-10T15:06:17;9.65;;;0.65;;
48881;SDS011;57063;51.406;-2.402;2023-05-10T15:08:42;1.55;;;0.30;;
48881;SDS011;57063;51.406;-2.402;2023-05-10T15:11:07;1.98;;;0.40;;
48881;SDS011;57063;51.406;-2.402;2023-05-10T15:13:32;4.05;;;0.40;;
48881;SDS011;57063;51.406;-2.402;2023-05-10T15:15:58;2.13;;;0.20;;
48881;SDS011;57063;51.406;-2.402;2023-05-10T15:18:23;1.45;;;0.40;;
48881;SDS011;57063;51.406;-2.402;2023-05-10T15:20:51;3.28;;;0.35;;